createdAt,value
2023-02-18T00:00:42.852Z,10.30
2023-02-18T00:03:20.263Z,10.30
2023-02-18T00:05:56.680Z,10.40
2023-02-18T00:08:33.028Z,10.40
2023-02-18T00:11:17.390Z,10.40
2023-02-18T00:13:57.235Z,10.50
2023-02-18T00:16:34.080Z,10.40
2023-02-18T00:19:12.839Z,10.50
2023-02-18T00:21:50.128Z,10.40
2023-02-18T00:24:26.360Z,10.40
2023-02-18T00:27:05.075Z,10.50
2023-02-18T00:29:41.486Z,10.60
2023-02-18T00:32:17.904Z,10.70
2023-02-18T00:34:54.126Z,10.70
2023-02-18T00:37:30.408Z,10.70
2023-02-18T00:40:06.455Z,10.70
2023-02-18T00:42:46.255Z,10.80
2023-02-18T00:45:23.269Z,10.80
2023-02-18T00:48:00.104Z,10.80
2023-02-18T00:50:39.657Z,10.70
2023-02-18T00:53:15.933Z,10.90
2023-02-18T00:55:53.084Z,10.90
2023-02-18T00:58:53.143Z,11.10
2023-02-18T01:01:30.243Z,11.10
2023-02-18T01:04:10.629Z,11.20
2023-02-18T01:06:47.159Z,11.20
2023-02-18T01:09:27.054Z,11.30
2023-02-18T01:12:03.376Z,11.30
2023-02-18T01:14:42.240Z,11.10
2023-02-18T01:17:18.964Z,11.10
2023-02-18T01:19:55.171Z,11.20
2023-02-18T01:22:31.742Z,11.30
2023-02-18T01:25:17.791Z,11.50
2023-02-18T01:27:53.909Z,11.40
2023-02-18T01:30:33.815Z,11.50
2023-02-18T01:33:11.454Z,11.60
2023-02-18T01:35:49.105Z,11.80
2023-02-18T01:38:25.866Z,12.00
2023-02-18T01:41:02.575Z,12.10
2023-02-18T01:43:43.703Z,12.00
2023-02-18T01:46:24.482Z,12.10
2023-02-18T01:49:07.839Z,11.90
2023-02-18T01:51:49.104Z,11.90
2023-02-18T01:54:31.927Z,12.00
2023-02-18T01:57:11.546Z,12.10
2023-02-18T01:59:54.966Z,12.10
2023-02-18T02:02:35.462Z,12.20
2023-02-18T02:05:14.096Z,12.30
2023-02-18T02:07:52.694Z,12.40
2023-02-18T02:10:30.951Z,12.60
2023-02-18T02:13:13.179Z,12.70
2023-02-18T02:15:55.549Z,12.60
2023-02-18T02:18:59.823Z,12.50
2023-02-18T02:22:16.254Z,12.70
2023-02-18T02:25:36.084Z,12.70
2023-02-18T02:28:55.780Z,12.70
2023-02-18T02:32:11.425Z,12.80
2023-02-18T02:35:01.198Z,13.00
2023-02-18T02:37:51.791Z,13.10
2023-02-18T02:40:34.745Z,13.10
2023-02-18T02:43:17.652Z,13.00
2023-02-18T02:46:00.424Z,13.20
2023-02-18T02:48:43.740Z,13.00
2023-02-18T02:51:27.223Z,13.20
2023-02-18T02:54:19.476Z,13.20
2023-02-18T02:56:55.723Z,13.50
2023-02-18T02:59:34.734Z,13.70
2023-02-18T03:02:29.592Z,13.70
2023-02-18T03:05:19.626Z,13.70
2023-02-18T03:08:09.862Z,13.70
2023-02-18T03:10:58.547Z,13.80
2023-02-18T03:13:52.370Z,13.80
2023-02-18T03:16:41.419Z,14.30
2023-02-18T03:19:25.837Z,14.50
2023-02-18T03:22:10.473Z,14.10
2023-02-18T03:25:05.547Z,14.10
2023-02-18T03:27:49.787Z,14.00
2023-02-18T03:30:33.402Z,14.10
2023-02-18T03:33:12.034Z,14.00
2023-02-18T03:36:10.081Z,14.30
2023-02-18T03:38:50.465Z,14.30
2023-02-18T03:41:29.041Z,14.60
2023-02-18T03:44:07.441Z,14.20
2023-02-18T03:46:45.284Z,14.30
2023-02-18T03:49:21.233Z,14.70
2023-02-18T03:51:56.954Z,14.80
2023-02-18T03:54:35.331Z,14.80
2023-02-18T03:57:17.943Z,15.10
2023-02-18T03:59:58.407Z,15.10
2023-02-18T04:02:34.778Z,15.30
2023-02-18T04:05:13.108Z,15.30
2023-02-18T04:07:49.806Z,15.30
2023-02-18T04:10:37.025Z,15.40
2023-02-18T04:13:19.447Z,15.30
2023-02-18T04:15:57.255Z,15.40
2023-02-18T04:18:37.103Z,15.50
2023-02-18T04:21:15.186Z,15.40
2023-02-18T04:23:59.937Z,15.60
2023-02-18T04:26:38.009Z,15.90
2023-02-18T04:29:28.718Z,15.80
2023-02-18T04:32:12.458Z,15.80
2023-02-18T04:34:50.276Z,16.20
2023-02-18T04:37:50.412Z,16.20
2023-02-18T04:40:28.500Z,16.10
2023-02-18T04:43:08.920Z,16.20
2023-02-18T04:45:50.946Z,16.20
2023-02-18T04:48:27.537Z,16.60
2023-02-18T04:51:05.079Z,17.20
2023-02-18T04:53:43.948Z,17.00
2023-02-18T04:56:24.122Z,17.20
2023-02-18T04:59:01.185Z,17.40
2023-02-18T05:01:45.606Z,17.40
2023-02-18T05:04:23.584Z,17.20
2023-02-18T05:07:04.332Z,17.60
2023-02-18T05:09:40.664Z,17.60
2023-02-18T05:12:18.323Z,17.50
2023-02-18T05:14:58.414Z,17.10
2023-02-18T05:17:37.361Z,17.20
2023-02-18T05:20:22.285Z,17.30
2023-02-18T05:22:58.452Z,17.20
2023-02-18T05:25:36.193Z,16.70
2023-02-18T05:28:15.582Z,17.00
2023-02-18T05:30:51.610Z,17.00
2023-02-18T05:33:29.967Z,17.30
2023-02-18T05:36:09.150Z,17.00
2023-02-18T05:38:46.112Z,17.20
2023-02-18T05:41:22.588Z,17.50
2023-02-18T05:44:16.128Z,17.50
2023-02-18T05:46:53.664Z,17.50
2023-02-18T05:49:33.022Z,17.50
2023-02-18T05:52:09.652Z,17.20
2023-02-18T05:54:46.507Z,17.30
2023-02-18T05:57:24.186Z,17.20
2023-02-18T06:00:03.497Z,17.20
2023-02-18T06:02:40.705Z,17.10
2023-02-18T06:05:23.168Z,17.10
2023-02-18T06:08:01.722Z,17.10
2023-02-18T06:10:37.879Z,17.20
2023-02-18T06:13:14.198Z,17.00
2023-02-18T06:15:53.145Z,17.50
2023-02-18T06:18:30.845Z,17.40
2023-02-18T06:21:37.346Z,17.50
2023-02-18T06:24:14.308Z,17.70
2023-02-18T06:26:56.881Z,17.60
2023-02-18T06:29:39.926Z,17.50
2023-02-18T06:32:19.989Z,17.60
2023-02-18T06:34:58.555Z,17.20
2023-02-18T06:37:42.168Z,17.60
2023-02-18T06:40:20.330Z,17.30
2023-02-18T06:42:56.640Z,17.20
2023-02-18T06:45:35.084Z,17.10
2023-02-18T06:48:11.413Z,17.10
2023-02-18T06:50:49.914Z,17.00
2023-02-18T06:53:29.086Z,16.80
2023-02-18T06:56:07.575Z,16.80
2023-02-18T06:58:45.344Z,16.70
2023-02-18T07:01:31.217Z,16.90
2023-02-18T07:04:13.390Z,16.70
2023-02-18T07:06:56.664Z,16.30
2023-02-18T07:09:36.135Z,16.20
2023-02-18T07:12:20.624Z,16.10
2023-02-18T07:14:59.288Z,16.10
2023-02-18T07:17:44.179Z,16.10
2023-02-18T07:20:20.867Z,16.20
2023-02-18T07:22:59.611Z,16.10
2023-02-18T07:25:39.690Z,16.00
2023-02-18T07:28:19.383Z,15.90
2023-02-18T07:30:56.942Z,16.00
2023-02-18T07:33:39.615Z,16.00
2023-02-18T07:36:23.204Z,16.00
2023-02-18T07:39:11.613Z,15.90
2023-02-18T07:42:02.070Z,15.80
2023-02-18T07:44:42.096Z,15.80
2023-02-18T07:47:24.330Z,15.70
2023-02-18T07:50:04.420Z,15.80
2023-02-18T07:52:42.248Z,15.90
2023-02-18T07:55:22.432Z,15.90
2023-02-18T07:58:13.880Z,16.00
2023-02-18T08:00:52.360Z,16.00
2023-02-18T08:03:30.716Z,16.10
2023-02-18T08:06:13.972Z,16.00
2023-02-18T08:08:53.673Z,16.00
2023-02-18T08:11:30.226Z,16.00
2023-02-18T08:14:12.760Z,16.00
2023-02-18T08:16:50.674Z,16.00
2023-02-18T08:19:30.125Z,16.00
2023-02-18T08:22:11.595Z,15.90
2023-02-18T08:24:48.507Z,15.80
2023-02-18T08:27:25.415Z,15.70
2023-02-18T08:30:04.251Z,15.80
2023-02-18T08:32:40.301Z,15.90
2023-02-18T08:35:17.566Z,15.80
2023-02-18T08:37:55.763Z,15.70
2023-02-18T08:40:32.534Z,15.70
2023-02-18T08:43:08.510Z,15.60
2023-02-18T08:45:47.988Z,15.50
2023-02-18T08:48:25.694Z,15.60
2023-02-18T08:51:03.996Z,15.60
2023-02-18T08:53:42.354Z,15.70
2023-02-18T08:56:20.551Z,15.80
2023-02-18T08:58:59.019Z,15.90
2023-02-18T09:01:38.470Z,15.70
2023-02-18T09:04:21.449Z,15.60
2023-02-18T09:06:57.585Z,15.60
2023-02-18T09:09:35.068Z,15.80
2023-02-18T09:12:13.886Z,15.80
2023-02-18T09:14:53.017Z,15.70
2023-02-18T09:17:35.496Z,15.60
2023-02-18T09:20:12.850Z,15.60
2023-02-18T09:23:01.318Z,15.50
2023-02-18T09:25:44.849Z,15.50
2023-02-18T09:28:20.948Z,15.50
2023-02-18T09:30:58.569Z,15.50
2023-02-18T09:33:41.080Z,15.50
2023-02-18T09:36:18.780Z,15.40
2023-02-18T09:38:55.309Z,15.30
2023-02-18T09:41:44.118Z,15.20
2023-02-18T09:44:27.880Z,15.10
2023-02-18T09:47:07.938Z,15.10
2023-02-18T09:49:55.871Z,15.10
2023-02-18T09:52:40.310Z,15.10
2023-02-18T09:55:35.115Z,15.00
2023-02-18T09:58:20.630Z,15.00
2023-02-18T10:01:03.643Z,15.00
2023-02-18T10:03:40.619Z,15.10
2023-02-18T10:06:42.866Z,15.20
2023-02-18T10:09:27.591Z,15.20
2023-02-18T10:12:07.960Z,15.20
2023-02-18T10:14:44.222Z,15.20
2023-02-18T10:17:25.203Z,15.20
2023-02-18T10:20:07.946Z,15.10
2023-02-18T10:22:49.685Z,15.10
2023-02-18T10:25:28.502Z,15.00
2023-02-18T10:28:05.817Z,15.00
2023-02-18T10:30:47.427Z,15.00
2023-02-18T10:33:37.726Z,15.00
2023-02-18T10:36:32.026Z,15.10
2023-02-18T10:39:45.627Z,15.10
2023-02-18T10:42:37.594Z,15.10
2023-02-18T10:45:25.984Z,15.10
2023-02-18T10:48:20.852Z,15.10
2023-02-18T10:51:00.634Z,15.10
2023-02-18T10:53:41.042Z,15.10
2023-02-18T10:56:40.867Z,15.00
2023-02-18T10:59:26.385Z,15.00
2023-02-18T11:02:05.930Z,15.00
2023-02-18T11:07:56.344Z,14.90
2023-02-18T11:10:38.239Z,14.90
2023-02-18T11:13:19.879Z,14.90
2023-02-18T11:16:06.766Z,14.90
2023-02-18T11:18:51.603Z,14.90
2023-02-18T11:21:36.799Z,14.80
2023-02-18T11:24:20.818Z,14.70
2023-02-18T11:26:59.178Z,14.80
2023-02-18T11:29:39.874Z,14.80
2023-02-18T11:32:20.611Z,14.80
2023-02-18T11:35:00.437Z,14.80
2023-02-18T11:37:44.158Z,14.80
2023-02-18T11:40:30.081Z,14.80
2023-02-18T11:43:19.010Z,14.80
2023-02-18T11:46:19.222Z,14.80
2023-02-18T11:49:01.441Z,14.80
2023-02-18T11:51:42.636Z,14.80
2023-02-18T11:54:40.045Z,14.80
2023-02-18T11:57:21.959Z,14.80
2023-02-18T12:00:02.324Z,14.80
2023-02-18T12:02:49.193Z,14.80
2023-02-18T12:05:33.626Z,14.80
2023-02-18T12:08:17.451Z,14.70
2023-02-18T12:10:56.214Z,14.70
2023-02-18T12:13:37.317Z,14.70
2023-02-18T12:16:26.926Z,14.80
2023-02-18T12:19:24.737Z,14.80
2023-02-18T12:22:09.900Z,14.70
2023-02-18T12:25:09.131Z,14.70
2023-02-18T12:27:57.149Z,14.70
2023-02-18T12:30:57.743Z,14.70
2023-02-18T12:33:46.967Z,14.70
2023-02-18T12:36:44.559Z,14.70
2023-02-18T12:39:36.044Z,14.70
2023-02-18T12:42:41.536Z,14.80
2023-02-18T12:45:38.296Z,14.70
2023-02-18T12:48:43.586Z,14.70
2023-02-18T12:51:43.036Z,14.70
2023-02-18T12:54:53.939Z,14.60
2023-02-18T12:58:05.383Z,14.60
2023-02-18T13:01:15.741Z,14.60
2023-02-18T13:04:21.503Z,14.60
2023-02-18T13:07:41.899Z,14.60
2023-02-18T13:10:48.774Z,14.60
2023-02-18T13:13:27.549Z,14.50
2023-02-18T13:16:15.642Z,14.40
2023-02-18T13:19:01.838Z,14.40
2023-02-18T13:21:48.080Z,14.30
2023-02-18T13:24:39.596Z,14.40
2023-02-18T13:27:27.060Z,14.40
2023-02-18T13:30:25.798Z,14.30
2023-02-18T13:33:38.865Z,14.30
2023-02-18T13:36:23.791Z,14.40
2023-02-18T13:39:08.272Z,14.40
2023-02-18T13:41:51.457Z,14.30
2023-02-18T13:45:24.655Z,14.30
2023-02-18T13:48:02.949Z,14.30
2023-02-18T13:50:51.743Z,14.30
2023-02-18T13:53:36.559Z,14.30
2023-02-18T13:56:22.673Z,14.30
2023-02-18T13:59:10.275Z,14.40
2023-02-18T14:01:51.981Z,14.30
2023-02-18T14:04:58.742Z,14.40
2023-02-18T14:08:14.178Z,14.30
2023-02-18T14:11:28.673Z,14.30
2023-02-18T14:14:41.036Z,14.30
2023-02-18T14:17:49.962Z,14.30
2023-02-18T14:20:56.763Z,14.20
2023-02-18T14:24:06.073Z,14.20
2023-02-18T14:26:57.696Z,14.20
2023-02-18T14:29:44.405Z,14.10
2023-02-18T14:32:32.456Z,14.10
2023-02-18T14:35:36.851Z,14.10
2023-02-18T14:39:00.889Z,14.00
2023-02-18T14:41:55.691Z,14.00
2023-02-18T14:44:53.632Z,14.00
2023-02-18T14:47:43.713Z,14.00
2023-02-18T14:50:24.295Z,14.00
2023-02-18T14:53:07.537Z,14.00
2023-02-18T14:55:49.818Z,14.10
2023-02-18T14:58:40.351Z,14.10
2023-02-18T15:01:27.464Z,14.00
2023-02-18T15:04:18.136Z,14.00
2023-02-18T15:07:11.350Z,14.10
2023-02-18T15:09:54.519Z,14.10
2023-02-18T15:12:31.314Z,14.10
2023-02-18T15:15:23.094Z,14.10
2023-02-18T15:18:11.958Z,14.10
2023-02-18T15:20:52.807Z,14.20
2023-02-18T15:23:29.853Z,14.10
2023-02-18T15:26:06.873Z,14.20
2023-02-18T15:29:02.284Z,14.20
2023-02-18T15:31:46.173Z,14.10
2023-02-18T15:34:47.886Z,14.00
2023-02-18T15:37:25.464Z,14.00
2023-02-18T15:40:12.900Z,14.10
2023-02-18T15:42:54.480Z,14.10
2023-02-18T15:45:35.170Z,14.10
2023-02-18T15:48:11.647Z,14.10
2023-02-18T15:51:08.139Z,14.10
2023-02-18T15:53:53.998Z,14.00
2023-02-18T15:56:56.430Z,14.00
2023-02-18T15:59:39.249Z,14.00
2023-02-18T16:02:24.281Z,13.90
2023-02-18T16:05:05.655Z,13.80
2023-02-18T16:07:59.946Z,13.70
2023-02-18T16:10:57.675Z,13.50
2023-02-18T16:13:36.299Z,13.50
2023-02-18T16:16:12.739Z,13.50
2023-02-18T16:18:49.768Z,13.30
2023-02-18T16:21:37.010Z,13.20
2023-02-18T16:24:42.251Z,13.30
2023-02-18T16:27:24.045Z,13.20
2023-02-18T16:30:03.025Z,13.20
2023-02-18T16:32:41.569Z,13.20
2023-02-18T16:35:48.933Z,13.20
2023-02-18T16:38:30.287Z,13.30
2023-02-18T16:41:08.962Z,13.30
2023-02-18T16:43:46.332Z,13.40
2023-02-18T16:46:24.405Z,13.40
2023-02-18T16:49:01.269Z,13.40
2023-02-18T16:51:42.482Z,13.40
2023-02-18T16:54:22.416Z,13.40
2023-02-18T16:57:02.023Z,13.40
2023-02-18T16:59:41.474Z,13.40
2023-02-18T17:02:26.197Z,13.30
2023-02-18T17:05:02.577Z,13.30
2023-02-18T17:07:38.925Z,13.30
2023-02-18T17:10:15.889Z,13.20
2023-02-18T17:12:58.374Z,13.20
2023-02-18T17:15:38.034Z,13.20
2023-02-18T17:18:17.832Z,13.20
2023-02-18T17:20:58.454Z,13.20
2023-02-18T17:23:34.263Z,13.20
2023-02-18T17:26:15.288Z,13.20
2023-02-18T17:28:53.785Z,13.10
2023-02-18T17:31:32.543Z,13.10
2023-02-18T17:34:15.277Z,13.10
2023-02-18T17:36:51.615Z,13.10
2023-02-18T17:39:28.678Z,13.00
2023-02-18T17:42:04.509Z,12.90
2023-02-18T17:44:43.132Z,13.00
2023-02-18T17:47:18.811Z,13.00
2023-02-18T17:49:55.145Z,13.00
2023-02-18T17:52:37.580Z,12.90
2023-02-18T17:55:21.912Z,13.00
2023-02-18T17:57:59.221Z,12.90
2023-02-18T18:00:40.174Z,12.80
2023-02-18T18:03:17.562Z,12.80
2023-02-18T18:05:59.310Z,12.70
2023-02-18T18:08:35.837Z,12.70
2023-02-18T18:11:16.528Z,12.70
2023-02-18T18:13:52.944Z,12.70
2023-02-18T18:16:34.454Z,12.70
2023-02-18T18:19:10.342Z,12.70
2023-02-18T18:21:48.405Z,12.70
2023-02-18T18:24:28.306Z,12.70
2023-02-18T18:27:04.687Z,12.80
2023-02-18T18:29:41.736Z,12.70
2023-02-18T18:32:19.745Z,12.70
2023-02-18T18:34:55.921Z,12.50
2023-02-18T18:37:31.888Z,12.50
2023-02-18T18:40:08.186Z,12.50
2023-02-18T18:42:43.288Z,12.50
2023-02-18T18:45:25.788Z,12.50
2023-02-18T18:48:03.654Z,12.40
2023-02-18T18:50:40.734Z,12.40
2023-02-18T18:53:23.562Z,12.40
2023-02-18T18:56:02.779Z,12.40
2023-02-18T18:58:38.916Z,12.40
2023-02-18T19:01:21.207Z,12.40
2023-02-18T19:03:59.885Z,12.40
2023-02-18T19:06:36.576Z,12.40
2023-02-18T19:09:12.906Z,12.40
2023-02-18T19:11:48.096Z,12.40
2023-02-18T19:14:23.896Z,12.30
2023-02-18T19:16:59.469Z,12.30
2023-02-18T19:19:37.543Z,12.30
2023-02-18T19:22:13.089Z,12.30
2023-02-18T19:24:48.712Z,12.30
2023-02-18T19:27:24.538Z,12.20
2023-02-18T19:30:00.358Z,12.20
2023-02-18T19:32:36.026Z,12.10
2023-02-18T19:35:13.763Z,12.00
2023-02-18T19:37:49.204Z,12.00
2023-02-18T19:40:26.196Z,12.10
2023-02-18T19:43:01.315Z,12.10
2023-02-18T19:45:36.204Z,12.10
2023-02-18T19:48:11.482Z,12.20
2023-02-18T19:50:48.763Z,12.20
2023-02-18T19:53:23.716Z,12.20
2023-02-18T19:56:03.927Z,12.20
2023-02-18T19:58:38.795Z,12.20
2023-02-18T20:01:17.693Z,12.30
2023-02-18T20:03:52.811Z,12.30
2023-02-18T20:06:31.938Z,12.30
2023-02-18T20:09:07.150Z,12.30
2023-02-18T20:11:42.399Z,12.30
2023-02-18T20:14:19.311Z,12.30
2023-02-18T20:16:54.471Z,12.20
2023-02-18T20:19:30.387Z,12.20
2023-02-18T20:22:08.702Z,12.20
2023-02-18T20:24:44.011Z,12.20
2023-02-18T20:27:19.124Z,12.30
2023-02-18T20:29:54.310Z,12.30
2023-02-18T20:32:28.478Z,12.30
2023-02-18T20:35:02.726Z,12.30
2023-02-18T20:37:38.920Z,12.40
2023-02-18T20:40:13.612Z,12.40
2023-02-18T20:42:48.022Z,12.40
2023-02-18T20:45:22.241Z,12.40
2023-02-18T20:47:56.135Z,12.40
2023-02-18T20:50:30.150Z,12.40
2023-02-18T20:53:06.447Z,12.40
2023-02-18T20:55:40.311Z,12.40
2023-02-18T20:58:14.462Z,12.30
2023-02-18T21:00:48.135Z,12.40
2023-02-18T21:03:21.709Z,12.40
2023-02-18T21:05:59.851Z,12.30
2023-02-18T21:08:35.480Z,12.30
2023-02-18T21:11:12.078Z,12.30
2023-02-18T21:13:48.605Z,12.20
2023-02-18T21:16:24.168Z,12.10
2023-02-18T21:18:59.056Z,12.00
2023-02-18T21:21:32.304Z,11.90
2023-02-18T21:24:07.425Z,11.90
2023-02-18T21:26:41.444Z,11.90
2023-02-18T21:29:16.766Z,11.80
2023-02-18T21:31:50.979Z,11.80
2023-02-18T21:37:17.664Z,11.80
2023-02-18T21:39:53.390Z,11.70
2023-02-18T21:42:26.977Z,11.70
2023-02-18T21:45:01.274Z,11.60
2023-02-18T21:47:35.005Z,11.40
2023-02-18T21:50:09.586Z,11.40
2023-02-18T21:52:43.087Z,11.40
2023-02-18T21:55:19.538Z,11.50
2023-02-18T21:57:53.225Z,11.60
2023-02-18T22:00:27.257Z,11.60
2023-02-18T22:03:00.791Z,11.60
2023-02-18T22:05:34.178Z,11.60
2023-02-18T22:08:08.008Z,11.60
2023-02-18T22:10:43.764Z,11.60
2023-02-18T22:13:17.303Z,11.60
2023-02-18T22:16:00.120Z,11.60
2023-02-18T22:18:36.461Z,11.50
2023-02-18T22:21:12.071Z,11.50
2023-02-18T22:23:46.770Z,11.50
2023-02-18T22:26:23.722Z,11.50
2023-02-18T22:28:58.618Z,11.50
2023-02-18T22:31:34.808Z,11.50
2023-02-18T22:34:09.672Z,11.30
2023-02-18T22:36:44.353Z,11.40
2023-02-18T22:39:20.622Z,11.40
2023-02-18T22:41:56.841Z,11.40
2023-02-18T22:44:32.005Z,11.40
2023-02-18T22:47:06.841Z,11.30
2023-02-18T22:49:41.426Z,11.30
2023-02-18T22:52:17.233Z,11.20
2023-02-18T22:54:53.464Z,11.20
2023-02-18T22:57:32.660Z,11.10
2023-02-18T23:00:10.274Z,11.20
2023-02-18T23:02:45.784Z,11.30
2023-02-18T23:05:20.626Z,11.30
2023-02-18T23:07:56.193Z,11.20
2023-02-18T23:10:31.091Z,11.20
2023-02-18T23:13:07.624Z,11.30
2023-02-18T23:15:42.538Z,11.30
2023-02-18T23:18:18.323Z,11.20
2023-02-18T23:21:09.525Z,11.30
2023-02-18T23:23:45.389Z,11.30
2023-02-18T23:26:21.244Z,11.40
2023-02-18T23:28:58.512Z,11.30
2023-02-18T23:31:34.134Z,11.30
2023-02-18T23:34:11.088Z,11.20
2023-02-18T23:36:48.618Z,11.20
2023-02-18T23:39:25.393Z,11.10
2023-02-18T23:42:00.992Z,11.10
2023-02-18T23:44:38.937Z,11.10
2023-02-18T23:47:13.164Z,11.10
2023-02-18T23:49:48.387Z,11.10
2023-02-18T23:52:24.123Z,11.00
2023-02-18T23:54:59.675Z,11.00
2023-02-18T23:57:37.386Z,11.00
